Price, UT

6:00 PM MDT on July 29, 2014 (GMT -0600)
Carbon County (KPUC) Elev 5955 ft | 39.61 °N, 110.75 °W | Change Station

Current weather conditions updated 7 minutes ago

Overcast
Overcast
69 °F
Feels Like 69 °F
N
6
Wind Variable Wind from SSW

Tomorrow is forecast to be Warmer than today. Afternoon thunderstorms.

Today
High -- | Low -- °F
--% Chance of Precip.
Yesterday
High -- | Low -- °F
Precip. -- in
6:21 AM 8:38 PM
Waxing Crescent, 8% visible
Pressure 30.04 in
Visibility 10.0 miles
Clouds Few 7500 ft
Overcast 10000 ft
Dew Point 55 °F
Humidity 61%
Rainfall 0.01 in
Snow Depth 0 in
UV 1 out of 12
Pollen 3.90 out of 12
Air Quality Not available.
Flu Activity Not available.
METAR KPUC 292353Z AUTO 20005KT 10SM FEW075 OVC100 21/13 A3023 RMK AO2 LTG DSNT SE AND NW SLP172 60001 T02060128 10261 20200 55004

More Conditions Fewer Conditions

Pressure 30.04 in
Visibility 10.0 miles
Clouds Few 7500 ft
Overcast 10000 ft
Dew Point 55 °F
Humidity 61%
Rainfall 0.01 in
Snow Depth 0 in
UV 1 out of 12
Pollen 3.90 out of 12
Air Quality Not available.
Flu Activity Not available.
METAR KPUC 292353Z AUTO 20005KT 10SM FEW075 OVC100 21/13 A3023 RMK AO2 LTG DSNT SE AND NW SLP172 60001 T02060128 10261 20200 55004

More Conditions Fewer Conditions

10-Day Weather Forecast

Almanac

Astronomy

Jul. 29, 2014 Rise Set
Actual Time 6:21 AM MDT 8:38 PM MDT
Civil Twilight 5:50 AM MDT 9:09 PM MDT
Nautical Twilight 5:13 AM MDT 9:46 PM MDT
Astronomical Twilight 4:32 AM MDT 10:26 PM MDT
Moon 8:59 AM MDT (7/29) 9:54 PM MDT (7/29)
Length of Visible Light 15h 18m
Length of Day
14h 17m
Tomorrow will be 1m 51s shorter.
Waxing Crescent, 8% of the Moon is Illuminated
Today
Waxing Crescent
Aug 3
First Quarter
Aug 10
Full
Aug 17
Last Quarter
Aug 25
New

Today's Extremes

State Highs State Lows

Community

WunderPhotos

Upload Photos

1,738,917 photos uploaded!

Nearby

Snow Depth

Station Depth Elevation
Red Pine Ridge 0 in 9200 ft
Seeley Creek 0 in 10000 ft
Clear Creek #2 0 in 8300 ft
Black Flat-U.M. Creek 0 in 9400 ft
Strawberry Divide 0 in 8400 ft

Earthquake Activity

City Distance Mag. Time & Date
No recent earthquake activity has been reported nearby.
Minimum magnitude displayed is 2.5.

Coastal Water Temperatures

Place Temperature
No Stations Reporting

Nearby Weather Stations

Station Location Temp. Heat Index Dew Point Humidity Wind Precip. Elev Updated Type
MesoWest PRICE , Wellington, UT 75 °F 78 °F 51 °F 43% WNW  at  11 mph 0.00 in / hr 5646 ft 5:00 PM MDT MADIS
MesoWest MOUNDS , Wellington, UT 80 °F 78 °F - - North  at  - 0.00 in / hr 5383 ft 4:30 PM MDT MADIS
MesoWest Price , Wellington, UT 75 °F 78 °F 54 °F 48% WNW  at  6 mph 0.00 in / hr 5688 ft 4:45 PM MDT MADIS
MesoWest SPGLEN , Scofield, UT 73 °F 71 °F - - North  at  - 0.00 in / hr 5728 ft 3:20 PM MDT MADIS

Show More Stations Show Fewer Stations